Time;durP1;ratioP1;P1;durP2;ratioP2;P2;SDS_P1;SDS_P2;PMS_P1;PMS_P2;Temp;Humidity;BMP_temperature;BMP_pressure;BME280_temperature;BME280_humidity;BME280_pressure;Samples;Min_cycle;Max_cycle;Signal;HPM_P1;HPM_P2
2022/12/26 00:01:51;;;;;;;30.60;17.25;;;1.60;99.90;;;;;;5029593;28;20438;-53
2022/12/26 00:04:17;;;;;;;32.60;15.40;;;1.60;99.90;;;;;;5040769;28;20040;-48
2022/12/26 00:06:43;;;;;;;23.73;14.98;;;1.50;99.90;;;;;;5049006;28;20025;-47
2022/12/26 00:09:09;;;;;;;24.02;12.68;;;1.50;99.90;;;;;;5049420;27;20029;-49
2022/12/26 00:11:35;;;;;;;27.90;12.52;;;1.50;99.90;;;;;;5049236;27;20035;-48
2022/12/26 00:14:10;;;;;;;23.17;12.40;;;1.50;99.90;;;;;;5048371;28;20048;-49
2022/12/26 00:16:38;;;;;;;16.35;11.60;;;1.50;99.90;;;;;;5049980;28;20033;-49
2022/12/26 00:19:03;;;;;;;22.05;12.13;;;1.50;99.90;;;;;;5037934;28;20120;-51
2022/12/26 00:21:29;;;;;;;17.67;13.60;;;1.50;99.90;;;;;;5029899;28;20116;-47
2022/12/26 00:23:56;;;;;;;25.48;14.80;;;1.50;99.90;;;;;;5029963;28;20036;-52
2022/12/26 00:26:24;;;;;;;21.88;11.30;;;1.50;99.90;;;;;;5029638;28;20029;-51
2022/12/26 00:28:51;;;;;;;21.25;11.75;;;1.50;99.90;;;;;;5029975;28;20053;-48
2022/12/26 00:31:20;;;;;;;20.50;11.80;;;1.40;99.90;;;;;;5029783;28;20021;-51
2022/12/26 00:33:47;;;;;;;15.50;10.43;;;1.50;99.90;;;;;;5047864;28;20495;-48
2022/12/26 00:36:16;;;;;;;17.92;11.23;;;1.40;99.90;;;;;;5049551;27;20033;-51
2022/12/26 00:38:43;;;;;;;15.63;10.30;;;1.40;99.90;;;;;;5049536;27;20123;-52
2022/12/26 00:41:10;;;;;;;19.13;9.98;;;1.30;99.90;;;;;;5049660;27;20033;-48
2022/12/26 00:43:35;;;;;;;13.57;9.40;;;1.40;99.90;;;;;;5049435;28;20627;-49
2022/12/26 00:46:01;;;;;;;15.18;9.93;;;1.40;99.90;;;;;;5049490;28;20037;-53
2022/12/26 00:48:27;;;;;;;13.57;9.38;;;1.30;99.90;;;;;;5031426;28;20044;-51
2022/12/26 00:50:53;;;;;;;22.95;8.88;;;1.30;99.90;;;;;;5029493;28;20049;-49
2022/12/26 00:53:20;;;;;;;13.25;8.95;;;1.30;99.90;;;;;;5029389;28;20346;-47
2022/12/26 00:55:45;;;;;;;17.75;10.43;;;1.30;99.90;;;;;;5029374;28;20028;-50
2022/12/26 00:58:11;;;;;;;16.67;11.05;;;1.20;99.90;;;;;;5029299;28;20022;-47
2022/12/26 01:00:37;;;;;;;14.98;10.45;;;1.20;99.90;;;;;;5033022;28;20050;-50
2022/12/26 01:03:06;;;;;;;17.50;9.07;;;1.20;99.90;;;;;;5048783;28;20025;-50
2022/12/26 01:05:32;;;;;;;13.25;9.07;;;1.20;99.90;;;;;;5049031;28;20025;-54
2022/12/26 01:07:57;;;;;;;21.42;10.45;;;1.20;99.90;;;;;;5048503;27;20025;-51
2022/12/26 01:10:23;;;;;;;12.32;8.85;;;1.20;99.90;;;;;;5049014;28;20024;-50
2022/12/26 01:12:49;;;;;;;12.95;8.77;;;1.20;99.90;;;;;;5048833;28;20057;-48
2022/12/26 01:15:15;;;;;;;15.35;10.40;;;1.20;99.90;;;;;;5048967;27;20040;-49
2022/12/26 01:17:40;;;;;;;19.35;9.38;;;1.10;99.90;;;;;;5033072;28;20025;-48
2022/12/26 01:20:06;;;;;;;15.32;9.13;;;1.10;99.90;;;;;;5029208;28;20392;-48
2022/12/26 01:22:33;;;;;;;14.00;9.52;;;1.10;99.90;;;;;;5028909;28;20458;-52
2022/12/26 01:24:59;;;;;;;13.70;8.93;;;1.00;99.90;;;;;;5029073;28;20029;-53
2022/12/26 01:27:25;;;;;;;14.88;9.93;;;1.10;99.90;;;;;;5028977;28;20090;-48
2022/12/26 01:29:55;;;;;;;10.90;8.50;;;1.00;99.90;;;;;;5029946;28;20396;-49
2022/12/26 01:32:21;;;;;;;17.50;9.95;;;1.00;99.90;;;;;;5048791;28;20426;-49
2022/12/26 01:34:47;;;;;;;23.88;11.18;;;1.00;99.90;;;;;;5048510;28;20025;-50
2022/12/26 01:37:13;;;;;;;16.25;10.93;;;1.10;99.90;;;;;;5048716;27;20017;-50
2022/12/26 01:39:39;;;;;;;17.02;10.57;;;1.20;99.90;;;;;;5048653;28;20414;-51
2022/12/26 01:42:12;;;;;;;18.98;10.25;;;1.20;99.90;;;;;;5048696;28;20029;-49
2022/12/26 01:45:15;;;;;;;16.40;9.60;;;1.20;99.90;;;;;;5047185;28;20134;-53
2022/12/26 01:47:52;;;;;;;17.55;8.65;;;1.20;99.90;;;;;;5028541;28;20476;-49
2022/12/26 01:50:53;;;;;;;13.73;9.23;;;1.30;99.90;;;;;;5028406;28;20116;-51
2022/12/26 01:53:33;;;;;;;16.35;10.48;;;1.20;99.90;;;;;;5088812;28;20412;-49
2022/12/26 01:56:31;;;;;;;14.52;8.75;;;1.20;99.90;;;;;;5035198;28;20034;-50
2022/12/26 01:59:02;;;;;;;15.73;9.68;;;1.20;99.90;;;;;;5033183;28;20032;-50
2022/12/26 02:01:31;;;;;;;12.63;8.45;;;1.20;99.90;;;;;;5048457;28;20033;-50
2022/12/26 02:06:42;;;;;;;12.77;7.82;;;1.20;99.90;;;;;;5048500;28;20081;-51
2022/12/26 02:09:08;;;;;;;13.75;9.52;;;1.20;99.90;;;;;;5048421;27;20028;-49
2022/12/26 02:11:35;;;;;;;13.40;9.70;;;1.20;99.90;;;;;;5046952;28;20029;-48
2022/12/26 02:14:04;;;;;;;16.27;9.30;;;1.20;99.90;;;;;;5040303;28;20174;-48
2022/12/26 02:16:30;;;;;;;16.08;10.13;;;1.20;99.90;;;;;;5029133;28;20026;-51
2022/12/26 02:18:55;;;;;;;9.77;7.07;;;1.20;99.90;;;;;;5028547;28;20491;-50
2022/12/26 02:21:42;;;;;;;15.30;9.48;;;1.20;99.90;;;;;;5029858;28;20034;-49
2022/12/26 02:24:41;;;;;;;14.32;8.10;;;1.10;99.90;;;;;;5031755;28;20040;-48
2022/12/26 02:27:32;;;;;;;15.23;9.25;;;1.20;99.90;;;;;;5032611;28;20070;-48
2022/12/26 02:30:26;;;;;;;16.10;10.38;;;1.20;99.90;;;;;;5051102;27;20072;-51
2022/12/26 02:32:55;;;;;;;19.35;9.95;;;1.20;99.90;;;;;;5051512;28;20035;-49
2022/12/26 02:36:22;;;;;;;24.50;11.13;;;1.20;99.90;;;;;;5051351;28;20029;-48
2022/12/26 02:39:19;;;;;;;18.15;10.65;;;1.10;99.90;;;;;;5009334;28;20171;-47
2022/12/26 02:41:56;;;;;;;14.75;8.00;;;1.10;99.90;;;;;;5051248;28;20361;-51
2022/12/26 02:47:23;;;;;;;15.75;10.02;;;1.10;99.90;;;;;;5031360;28;20070;-51
2022/12/26 03:13:24;;;;;;;16.52;8.73;;;1.20;99.90;;;;;;5007364;28;20460;-48
2022/12/26 03:18:55;;;;;;;36.10;15.20;;;1.10;99.90;;;;;;5031032;28;20078;-50
2022/12/26 03:21:26;;;;;;;63.00;25.25;;;1.20;99.90;;;;;;5030974;28;20068;-50
2022/12/26 03:23:53;;;;;;;43.40;16.98;;;1.20;99.90;;;;;;5030831;28;20022;-49
2022/12/26 03:26:46;;;;;;;32.83;13.82;;;1.20;99.90;;;;;;5047171;28;20054;-51
2022/12/26 03:32:07;;;;;;;23.33;13.00;;;1.20;99.90;;;;;;5050503;28;20040;-48
2022/12/26 03:34:36;;;;;;;23.77;12.18;;;1.20;99.90;;;;;;5041641;28;20037;-51
2022/12/26 03:37:35;;;;;;;32.53;14.27;;;1.10;99.90;;;;;;5050023;28;20070;-49
2022/12/26 04:44:24;;;;;;;10.32;5.25;;;0.70;99.90;;;;;;5048343;27;20040;-47
2022/12/26 04:46:52;;;;;;;12.75;6.65;;;0.70;99.90;;;;;;5030839;28;20086;-51
2022/12/26 04:52:06;;;;;;;5.00;4.50;;;0.70;99.90;;;;;;5029668;28;20146;-49
2022/12/26 04:54:32;;;;;;;5.35;4.85;;;0.70;99.90;;;;;;5029401;28;20472;-47
2022/12/26 04:56:58;;;;;;;8.00;5.13;;;0.80;99.90;;;;;;5048463;28;20033;-49
2022/12/26 04:59:24;;;;;;;7.60;4.85;;;0.80;99.90;;;;;;5047938;28;20073;-48
2022/12/26 05:10:16;;;;;;;6.47;4.65;;;0.70;99.90;;;;;;5029369;28;20102;-48
2022/12/26 05:12:42;;;;;;;5.18;4.65;;;0.70;99.90;;;;;;5028287;28;20082;-48
2022/12/26 05:15:08;;;;;;;5.82;5.40;;;0.70;99.90;;;;;;5031932;27;20029;-49
2022/12/26 05:28:40;;;;;;;5.60;4.55;;;0.80;99.90;;;;;;5028644;28;20059;-47
2022/12/26 05:31:07;;;;;;;5.15;4.47;;;0.70;99.90;;;;;;5028779;28;20029;-51
2022/12/26 05:36:20;;;;;;;4.53;4.13;;;0.70;99.90;;;;;;5041451;28;20495;-49
2022/12/26 05:38:47;;;;;;;5.15;4.68;;;0.70;99.90;;;;;;5048629;28;20379;-50
2022/12/26 05:41:13;;;;;;;5.32;4.45;;;0.70;99.90;;;;;;5048554;28;20058;-49
2022/12/26 05:43:38;;;;;;;4.72;4.30;;;0.70;99.90;;;;;;5048672;27;20494;-49
2022/12/26 05:46:04;;;;;;;4.55;4.15;;;0.70;99.90;;;;;;5037298;28;20029;-48
2022/12/26 05:48:30;;;;;;;4.75;4.32;;;0.70;99.90;;;;;;5028454;28;20030;-47
2022/12/26 05:51:00;;;;;;;4.60;4.13;;;0.70;99.90;;;;;;5028567;28;20022;-52
2022/12/26 05:53:26;;;;;;;5.50;4.70;;;0.70;99.90;;;;;;5028409;28;20033;-49
2022/12/26 05:55:52;;;;;;;4.50;4.10;;;0.70;99.90;;;;;;5037002;27;20060;-49
2022/12/26 05:58:17;;;;;;;4.55;4.15;;;0.70;99.90;;;;;;5031848;28;20060;-49
2022/12/26 06:00:43;;;;;;;7.40;5.00;;;0.70;99.90;;;;;;5028466;28;20370;-51
2022/12/26 06:03:09;;;;;;;5.05;4.55;;;0.70;99.90;;;;;;5028280;28;20450;-48
2022/12/26 06:05:34;;;;;;;7.78;5.10;;;0.70;99.90;;;;;;5034423;28;20111;-47
2022/12/26 06:08:00;;;;;;;5.07;4.57;;;0.70;99.90;;;;;;5047878;28;20112;-51
2022/12/26 06:10:28;;;;;;;23.25;14.35;;;0.70;99.90;;;;;;5048006;27;20112;-49
2022/12/26 06:12:55;;;;;;;25.08;14.93;;;0.70;99.90;;;;;;5047779;28;20021;-47
2022/12/26 06:15:21;;;;;;;9.45;6.85;;;0.70;99.90;;;;;;5043127;28;20030;-48
2022/12/26 06:17:46;;;;;;;5.65;5.03;;;0.60;99.90;;;;;;5028323;28;20029;-49
2022/12/26 06:20:12;;;;;;;8.27;6.45;;;0.60;99.90;;;;;;5027862;28;20021;-50
2022/12/26 06:22:38;;;;;;;7.78;5.30;;;0.60;99.90;;;;;;5028277;28;20457;-50
2022/12/26 06:25:04;;;;;;;6.05;5.25;;;0.60;99.90;;;;;;5029965;28;20030;-48
2022/12/26 06:27:29;;;;;;;6.47;5.68;;;0.60;99.90;;;;;;5047594;28;20570;-48
2022/12/26 06:29:55;;;;;;;5.50;5.00;;;0.60;99.90;;;;;;5048071;28;20116;-50
2022/12/26 06:32:21;;;;;;;6.25;5.40;;;0.50;99.90;;;;;;5047749;28;20025;-48
2022/12/26 06:34:47;;;;;;;5.55;5.05;;;0.50;99.90;;;;;;5047778;28;20542;-50
2022/12/26 06:37:12;;;;;;;26.90;12.90;;;0.40;99.90;;;;;;5028228;28;20033;-47
2022/12/26 06:39:38;;;;;;;15.95;9.23;;;0.40;99.90;;;;;;5027984;28;20028;-49
2022/12/26 06:42:04;;;;;;;6.53;5.78;;;0.40;99.90;;;;;;5027946;28;20372;-48
2022/12/26 06:44:29;;;;;;;7.78;6.07;;;0.40;99.90;;;;;;5027685;28;20032;-50
2022/12/26 06:46:55;;;;;;;8.10;6.45;;;0.30;99.90;;;;;;5044550;28;20044;-49
2022/12/26 06:49:21;;;;;;;12.73;7.18;;;0.30;99.90;;;;;;5047466;27;20371;-49
2022/12/26 06:51:47;;;;;;;23.35;14.07;;;0.40;99.90;;;;;;5047688;28;20676;-50
2022/12/26 06:54:12;;;;;;;16.05;10.18;;;0.30;99.90;;;;;;5047530;28;20029;-51
2022/12/26 06:56:38;;;;;;;9.18;7.50;;;0.40;99.90;;;;;;5032938;28;20030;-50
2022/12/26 06:59:05;;;;;;;8.20;6.70;;;0.30;99.90;;;;;;5027787;28;20033;-48
2022/12/26 07:01:33;;;;;;;6.72;5.13;;;0.30;99.90;;;;;;5027333;28;20086;-50
2022/12/26 07:03:59;;;;;;;7.47;5.00;;;0.40;99.90;;;;;;5027487;28;20078;-48
2022/12/26 07:06:29;;;;;;;6.40;5.32;;;0.40;99.90;;;;;;5039966;28;20409;-48
2022/12/26 07:09:01;;;;;;;9.98;6.38;;;0.40;99.90;;;;;;5050827;28;20029;-51
2022/12/26 07:11:30;;;;;;;6.00;5.40;;;0.40;99.90;;;;;;5050475;28;20022;-52
2022/12/26 07:13:56;;;;;;;7.05;5.35;;;0.40;99.90;;;;;;5050555;27;20045;-49
2022/12/26 07:16:23;;;;;;;7.05;5.90;;;0.40;99.90;;;;;;5039165;27;20043;-49
2022/12/26 07:18:54;;;;;;;6.78;6.07;;;0.50;99.90;;;;;;5030574;28;20017;-51
2022/12/26 07:21:20;;;;;;;9.57;6.60;;;0.50;99.90;;;;;;5030761;28;20512;-48
2022/12/26 07:23:46;;;;;;;17.38;11.48;;;0.50;99.90;;;;;;5031000;28;20038;-51
2022/12/26 07:26:11;;;;;;;13.57;9.20;;;0.60;99.90;;;;;;5039358;27;20105;-48
2022/12/26 07:28:37;;;;;;;11.40;9.27;;;0.60;99.90;;;;;;5050833;27;20033;-49
2022/12/26 07:31:03;;;;;;;11.98;8.80;;;0.70;99.90;;;;;;5050385;28;20053;-47
2022/12/26 07:33:29;;;;;;;12.90;9.20;;;0.80;99.90;;;;;;5050196;28;20044;-50
2022/12/26 07:36:00;;;;;;;12.07;8.82;;;0.80;99.90;;;;;;5042883;27;20029;-49
2022/12/26 07:38:25;;;;;;;11.45;6.63;;;0.90;99.90;;;;;;5029794;28;20021;-48
2022/12/26 07:40:57;;;;;;;7.75;6.68;;;0.90;99.90;;;;;;5038823;28;20016;-50
2022/12/26 07:43:23;;;;;;;12.60;9.40;;;1.00;99.90;;;;;;5049746;28;20085;-49
2022/12/26 07:45:50;;;;;;;10.10;7.25;;;1.00;99.90;;;;;;5049730;28;20116;-49
2022/12/26 07:48:16;;;;;;;10.90;8.40;;;1.10;99.90;;;;;;5049668;28;20084;-47
2022/12/26 07:50:45;;;;;;;7.40;6.30;;;1.10;99.90;;;;;;5042062;27;20064;-49
2022/12/26 07:53:14;;;;;;;8.23;6.70;;;1.10;99.90;;;;;;5030889;28;20025;-47
2022/12/26 07:55:40;;;;;;;7.57;6.63;;;1.00;99.90;;;;;;5048887;28;20081;-48
2022/12/26 07:58:06;;;;;;;7.88;7.03;;;1.10;99.90;;;;;;5048999;28;20488;-47
2022/12/26 08:00:31;;;;;;;9.50;6.38;;;1.20;99.90;;;;;;5045209;28;20037;-48
2022/12/26 08:02:57;;;;;;;9.07;7.00;;;1.20;99.90;;;;;;5028904;28;20066;-49
2022/12/26 08:05:23;;;;;;;14.10;8.90;;;1.30;99.90;;;;;;5027611;28;20037;-50
2022/12/26 08:07:49;;;;;;;9.55;7.43;;;1.30;99.90;;;;;;5029053;28;20037;-49
2022/12/26 08:10:16;;;;;;;10.38;6.70;;;1.20;99.90;;;;;;5032175;28;20056;-47
2022/12/26 08:12:42;;;;;;;14.45;11.50;;;1.30;99.90;;;;;;5049502;27;20033;-49
2022/12/26 08:15:10;;;;;;;15.82;12.18;;;1.40;99.90;;;;;;5049933;27;20028;-50
2022/12/26 08:17:35;;;;;;;12.60;10.30;;;1.40;99.90;;;;;;5049206;27;20027;-50
2022/12/26 08:20:01;;;;;;;9.40;8.05;;;1.50;99.90;;;;;;5048805;28;20013;-50
2022/12/26 08:22:27;;;;;;;7.82;6.88;;;1.60;99.90;;;;;;5029925;28;20239;-49
2022/12/26 08:24:52;;;;;;;7.85;6.78;;;1.60;99.90;;;;;;5030002;28;20567;-51
2022/12/26 08:27:18;;;;;;;7.97;7.18;;;1.70;99.90;;;;;;5029856;28;20401;-50
2022/12/26 08:29:44;;;;;;;8.50;7.07;;;1.90;99.90;;;;;;5029888;28;20053;-50
2022/12/26 08:32:09;;;;;;;8.50;6.10;;;2.10;99.90;;;;;;5047023;27;20029;-50
2022/12/26 08:34:35;;;;;;;11.25;7.20;;;2.20;99.90;;;;;;5038601;27;20029;-49
2022/12/26 08:37:01;;;;;;;8.20;5.43;;;2.40;99.90;;;;;;5029647;28;20076;-48
2022/12/26 08:39:27;;;;;;;8.35;6.57;;;2.40;99.90;;;;;;5029609;28;20051;-48
2022/12/26 08:41:53;;;;;;;7.22;6.05;;;2.60;99.90;;;;;;5029734;28;20081;-49
2022/12/26 08:44:18;;;;;;;6.82;6.18;;;2.60;99.90;;;;;;5036671;28;20029;-49
2022/12/26 08:46:44;;;;;;;10.82;7.78;;;2.80;99.90;;;;;;5049549;28;20025;-49
2022/12/26 08:49:13;;;;;;;12.35;9.30;;;2.90;99.90;;;;;;5049397;28;20017;-50
2022/12/26 08:51:39;;;;;;;12.25;9.27;;;3.10;99.90;;;;;;5048037;28;20060;-48
2022/12/26 08:54:05;;;;;;;11.15;8.80;;;3.20;99.90;;;;;;5030002;28;20060;-49
2022/12/26 08:56:31;;;;;;;11.65;9.40;;;3.40;99.90;;;;;;5029466;28;20396;-48
2022/12/26 08:58:57;;;;;;;14.18;10.68;;;3.50;99.90;;;;;;5029558;28;20381;-50
2022/12/26 09:01:25;;;;;;;18.63;12.15;;;3.60;99.90;;;;;;5029275;28;20029;-48
2022/12/26 09:03:55;;;;;;;13.43;10.50;;;3.80;99.90;;;;;;5046187;28;20025;-52
2022/12/26 09:06:21;;;;;;;15.65;11.23;;;4.00;99.90;;;;;;5049132;27;20329;-49
2022/12/26 09:08:47;;;;;;;13.25;10.77;;;4.20;99.90;;;;;;5049169;27;20093;-49
2022/12/26 09:11:16;;;;;;;15.18;11.00;;;4.40;99.90;;;;;;5048814;27;20048;-48
2022/12/26 09:13:43;;;;;;;17.13;11.15;;;4.60;99.90;;;;;;5033077;28;20050;-49
2022/12/26 09:16:23;;;;;;;16.58;12.10;;;4.70;99.90;;;;;;5029149;28;20411;-53
2022/12/26 09:18:53;;;;;;;17.80;8.90;;;4.80;99.90;;;;;;5029065;28;20026;-49
2022/12/26 09:21:19;;;;;;;16.83;9.88;;;5.10;99.90;;;;;;5028771;28;20100;-52
2022/12/26 09:23:45;;;;;;;10.10;7.22;;;5.20;99.90;;;;;;5044538;28;20111;-49
2022/12/26 09:26:17;;;;;;;7.95;7.03;;;5.50;99.90;;;;;;5047531;28;20040;-51
2022/12/26 09:28:45;;;;;;;14.67;9.27;;;5.60;99.90;;;;;;5048807;27;20505;-50
2022/12/26 09:31:16;;;;;;;13.18;9.02;;;5.90;99.90;;;;;;5048451;28;20316;-48
2022/12/26 09:33:42;;;;;;;13.52;8.20;;;6.70;99.90;;;;;;5033344;28;20044;-52
2022/12/26 09:36:14;;;;;;;10.82;8.27;;;8.00;99.90;;;;;;5028767;28;20029;-49
2022/12/26 09:38:39;;;;;;;11.48;9.13;;;9.10;99.90;;;;;;5028934;28;20037;-50
2022/12/26 09:41:24;;;;;;;9.07;7.72;;;10.10;99.90;;;;;;5028912;28;20022;-49
2022/12/26 09:44:09;;;;;;;19.08;11.30;;;11.30;99.90;;;;;;5044539;28;20062;-51
2022/12/26 09:46:39;;;;;;;21.08;15.60;;;12.50;99.00;;;;;;5048386;28;20078;-50
2022/12/26 09:49:21;;;;;;;16.85;14.50;;;13.50;96.10;;;;;;5048618;28;20418;-52
2022/12/26 09:51:55;;;;;;;22.05;16.17;;;15.20;94.80;;;;;;5048606;28;20115;-50
2022/12/26 09:54:32;;;;;;;24.95;16.70;;;15.80;92.10;;;;;;5113707;27;20064;-50
2022/12/26 09:57:01;;;;;;;27.25;17.15;;;16.00;89.20;;;;;;5028579;28;20033;-52
2022/12/26 09:59:28;;;;;;;22.02;15.70;;;15.60;90.20;;;;;;5028460;28;20026;-51
2022/12/26 10:01:54;;;;;;;17.15;12.98;;;15.00;90.90;;;;;;5028544;28;20037;-51
2022/12/26 10:04:27;;;;;;;11.23;9.38;;;15.60;90.70;;;;;;5047701;28;20476;-49
2022/12/26 10:07:00;;;;;;;19.63;12.35;;;16.30;87.90;;;;;;5033827;28;20030;-53
2022/12/26 10:09:26;;;;;;;8.63;7.20;;;15.40;89.20;;;;;;5028392;28;20021;-51
2022/12/26 10:12:01;;;;;;;7.30;6.40;;;15.90;88.80;;;;;;5028423;28;20406;-50
2022/12/26 10:14:45;;;;;;;9.93;5.80;;;16.00;86.60;;;;;;5026731;28;20056;-51
2022/12/26 10:17:32;;;;;;;11.52;7.32;;;15.90;88.10;;;;;;5043162;28;20078;-52
2022/12/26 10:20:16;;;;;;;6.38;5.32;;;16.40;87.10;;;;;;5028259;28;20049;-49
2022/12/26 10:23:17;;;;;;;6.15;5.25;;;17.70;83.20;;;;;;5028320;28;20521;-49
2022/12/26 10:26:06;;;;;;;8.77;6.20;;;17.40;81.60;;;;;;5047000;28;20041;-51
2022/12/26 10:28:47;;;;;;;8.52;7.72;;;17.20;84.60;;;;;;5057211;28;20086;-51
2022/12/26 10:31:33;;;;;;;6.93;5.93;;;17.90;81.50;;;;;;5047152;28;20364;-51
2022/12/26 10:34:28;;;;;;;9.45;8.18;;;18.50;79.30;;;;;;5047698;28;20021;-54
2022/12/26 10:37:17;;;;;;;9.40;8.32;;;18.70;78.20;;;;;;5033508;28;20026;-51
2022/12/26 10:39:47;;;;;;;10.00;7.32;;;18.90;77.10;;;;;;5026657;28;20078;-54
2022/12/26 10:42:38;;;;;;;9.63;6.05;;;18.50;77.20;;;;;;5028963;28;20017;-54
2022/12/26 10:45:40;;;;;;;6.25;3.95;;;18.40;79.70;;;;;;5043529;27;20057;-54
2022/12/26 10:48:07;;;;;;;7.40;4.75;;;18.40;80.20;;;;;;5050930;28;20021;-51
2022/12/26 10:50:34;;;;;;;7.97;6.78;;;17.20;82.60;;;;;;5050513;28;20112;-49
2022/12/26 10:53:03;;;;;;;8.95;7.10;;;16.50;86.50;;;;;;5051103;28;20040;-52
2022/12/26 10:55:32;;;;;;;9.13;8.07;;;16.40;88.20;;;;;;5050928;28;20048;-51
2022/12/26 10:58:13;;;;;;;6.85;5.97;;;15.80;89.30;;;;;;5050491;28;20032;-51
2022/12/26 11:00:39;;;;;;;17.55;12.88;;;14.90;91.90;;;;;;5079366;27;20049;-53
2022/12/26 11:03:12;;;;;;;41.60;27.05;;;14.10;94.60;;;;;;5156504;27;20046;-50
2022/12/26 11:05:44;;;;;;;48.80;27.60;;;13.60;96.40;;;;;;5064081;27;20037;-51
2022/12/26 11:08:46;;;;;;;16.67;11.43;;;13.30;99.20;;;;;;5049849;28;20410;-52
2022/12/26 11:11:18;;;;;;;24.13;15.57;;;13.00;99.90;;;;;;4988855;28;20210;-52
2022/12/26 11:13:54;;;;;;;21.42;14.55;;;12.90;99.90;;;;;;5040095;28;20472;-51
2022/12/26 11:16:39;;;;;;;11.50;6.88;;;13.30;99.90;;;;;;5030746;28;20117;-55
2022/12/26 11:19:05;;;;;;;32.38;23.17;;;13.90;99.90;;;;;;5030678;28;20034;-52
2022/12/26 11:21:34;;;;;;;18.10;12.68;;;15.40;99.10;;;;;;5030955;28;20024;-54
2022/12/26 11:24:08;;;;;;;9.52;6.28;;;16.40;98.10;;;;;;5033047;28;20032;-54
2022/12/26 11:26:35;;;;;;;12.30;7.43;;;16.60;95.00;;;;;;5050683;28;20056;-52
2022/12/26 11:29:20;;;;;;;9.73;6.43;;;17.00;94.90;;;;;;5050679;28;20416;-51
2022/12/26 11:32:00;;;;;;;10.68;8.45;;;16.80;94.70;;;;;;5050670;27;20029;-53
2022/12/26 11:34:36;;;;;;;6.97;5.45;;;17.00;94.80;;;;;;5036984;28;20524;-51
2022/12/26 11:37:04;;;;;;;11.75;6.85;;;17.00;95.50;;;;;;5030720;28;20368;-54
2022/12/26 11:39:35;;;;;;;7.72;6.80;;;16.20;96.00;;;;;;5030507;28;20049;-49
2022/12/26 11:42:14;;;;;;;6.22;5.40;;;16.00;96.20;;;;;;5030738;28;20021;-53
2022/12/26 11:44:44;;;;;;;7.97;4.22;;;17.10;96.20;;;;;;5044581;28;20029;-53
2022/12/26 11:47:13;;;;;;;6.07;4.53;;;18.60;93.30;;;;;;5050220;28;20037;-54
2022/12/26 11:49:45;;;;;;;5.03;4.10;;;20.60;84.40;;;;;;5050239;28;20036;-54
2022/12/26 11:52:37;;;;;;;6.93;5.82;;;22.00;77.90;;;;;;5050048;28;20025;-55
2022/12/26 11:55:21;;;;;;;7.35;5.57;;;22.20;72.30;;;;;;5032607;28;20377;-52
2022/12/26 11:58:20;;;;;;;13.57;8.20;;;24.40;65.00;;;;;;5030164;28;20041;-52
2022/12/26 12:00:48;;;;;;;14.68;9.55;;;25.40;59.20;;;;;;5037991;28;20477;-53
2022/12/26 12:03:26;;;;;;;19.17;12.45;;;25.80;56.30;;;;;;5030393;28;20029;-54
2022/12/26 12:05:55;;;;;;;11.27;8.40;;;25.40;55.00;;;;;;5049247;28;20037;-51
2022/12/26 12:08:47;;;;;;;9.15;6.68;;;24.60;55.60;;;;;;5048791;28;20021;-50
2022/12/26 12:11:28;;;;;;;12.73;7.35;;;23.40;55.40;;;;;;5048960;28;20066;-50
2022/12/26 12:14:02;;;;;;;6.35;5.10;;;22.50;58.10;;;;;;5040767;28;20048;-51
2022/12/26 12:16:40;;;;;;;7.65;5.20;;;21.00;60.80;;;;;;5028921;28;20030;-54
2022/12/26 12:19:18;;;;;;;8.38;5.78;;;19.90;62.50;;;;;;5029788;28;20070;-49
2022/12/26 12:21:49;;;;;;;9.30;5.38;;;18.50;69.30;;;;;;5029858;28;20029;-50
2022/12/26 12:24:22;;;;;;;5.18;4.45;;;17.60;73.90;;;;;;5038995;28;20029;-53
2022/12/26 12:27:20;;;;;;;7.65;4.60;;;17.60;75.80;;;;;;5049500;28;20036;-51
2022/12/26 12:29:45;;;;;;;7.68;3.88;;;17.20;79.80;;;;;;5049214;28;20375;-52
2022/12/26 12:32:27;;;;;;;10.48;3.13;;;16.60;81.50;;;;;;5049271;28;20036;-54
2022/12/26 12:35:11;;;;;;;8.13;5.10;;;16.20;82.60;;;;;;5033699;27;20029;-50
2022/12/26 12:37:49;;;;;;;;;;;15.70;88.00;;;;;;5029733;28;20022;-55
2022/12/26 12:40:20;;;;;;;9.05;4.18;;;15.20;91.30;;;;;;5028749;28;20340;-54
2022/12/26 12:43:07;;;;;;;5.57;4.45;;;15.00;95.50;;;;;;5028179;28;20446;-53
2022/12/26 12:45:41;;;;;;;6.35;5.10;;;14.90;98.10;;;;;;5029185;28;20076;-49
2022/12/26 12:48:32;;;;;;;5.55;4.38;;;14.60;99.20;;;;;;5027939;28;20037;-55
2022/12/26 12:51:42;;;;;;;8.23;5.20;;;14.50;99.90;;;;;;5028084;28;20033;-52
2022/12/26 12:54:20;;;;;;;6.22;4.88;;;14.20;99.90;;;;;;5056185;28;20029;-54
2022/12/26 12:57:02;;;;;;;12.70;6.70;;;14.10;99.90;;;;;;5038915;28;20526;-51
2022/12/26 12:59:37;;;;;;;8.38;6.07;;;13.90;99.90;;;;;;5048007;28;20035;-53
2022/12/26 13:02:13;;;;;;;12.32;7.10;;;13.80;99.90;;;;;;5048232;27;20104;-51
2022/12/26 13:04:47;;;;;;;7.82;5.60;;;13.80;99.90;;;;;;5047967;28;20021;-52
2022/12/26 13:07:22;;;;;;;15.82;5.93;;;13.70;99.90;;;;;;5037499;28;20025;-52
2022/12/26 13:09:55;;;;;;;38.10;18.13;;;13.60;99.90;;;;;;5029109;28;20029;-53
2022/12/26 13:12:25;;;;;;;30.90;15.85;;;13.40;99.90;;;;;;5027763;28;20105;-51
2022/12/26 13:15:01;;;;;;;17.88;12.27;;;13.10;99.90;;;;;;5027477;28;20054;-51
2022/12/26 13:17:31;;;;;;;18.83;11.30;;;13.00;99.90;;;;;;5041410;27;20356;-54
2022/12/26 13:20:19;;;;;;;20.95;10.98;;;12.80;99.90;;;;;;5048790;28;20025;-50
2022/12/26 13:26:02;;;;;;;23.45;12.20;;;12.50;99.90;;;;;;5048731;28;20595;-49
2022/12/26 13:28:33;;;;;;;17.80;12.43;;;12.40;99.90;;;;;;5028790;28;20037;-53
2022/12/26 13:30:58;;;;;;;18.13;11.32;;;12.10;99.90;;;;;;5028650;28;20097;-55
2022/12/26 13:33:24;;;;;;;15.40;10.45;;;12.10;99.90;;;;;;5028741;28;20108;-51
2022/12/26 13:36:00;;;;;;;12.20;8.75;;;11.90;99.90;;;;;;5028418;28;20034;-54
2022/12/26 13:38:57;;;;;;;17.23;8.63;;;11.80;99.90;;;;;;5028779;28;20112;-49
2022/12/26 13:44:18;;;;;;;10.10;6.95;;;11.60;99.90;;;;;;5028467;28;20110;-52
2022/12/26 13:46:47;;;;;;;10.50;7.10;;;11.40;99.90;;;;;;5034693;28;20040;-51
2022/12/26 13:49:35;;;;;;;9.48;6.00;;;11.30;99.90;;;;;;5046776;28;20533;-50
2022/12/26 13:52:09;;;;;;;11.80;6.35;;;11.10;99.90;;;;;;5048295;28;20039;-50
2022/12/26 13:54:36;;;;;;;4.28;3.55;;;11.10;99.90;;;;;;5048105;28;20025;-51
2022/12/26 13:57:14;;;;;;;76.75;20.35;;;11.30;99.90;;;;;;5039700;28;20026;-51
2022/12/26 14:00:21;;;;;;;54.78;16.20;;;12.10;99.90;;;;;;5026971;28;20021;-53
2022/12/26 14:03:18;;;;;;;12.27;5.70;;;12.40;99.90;;;;;;5027890;28;20044;-53
2022/12/26 14:06:04;;;;;;;52.53;15.35;;;12.60;99.90;;;;;;5028194;28;20060;-53
2022/12/26 14:09:06;;;;;;;2.35;2.10;;;12.80;99.60;;;;;;5028128;28;20033;-53
2022/12/26 14:11:47;;;;;;;4.40;2.13;;;13.20;98.00;;;;;;5028008;28;20038;-51
2022/12/26 14:14:30;;;;;;;7.03;2.00;;;13.20;98.00;;;;;;5028115;28;20663;-53
2022/12/26 14:17:29;;;;;;;2.60;2.17;;;13.10;97.90;;;;;;5037862;28;20516;-50
2022/12/26 14:20:12;;;;;;;2.30;2.05;;;12.90;98.40;;;;;;5070307;27;20120;-52
2022/12/26 14:22:53;;;;;;;7.72;2.08;;;12.70;99.50;;;;;;5031571;28;20473;-49
2022/12/26 14:25:43;;;;;;;14.15;8.25;;;12.60;99.90;;;;;;5031270;28;20022;-49
2022/12/26 14:28:20;;;;;;;3.53;2.47;;;12.50;99.90;;;;;;5047589;28;20077;-52
2022/12/26 14:30:51;;;;;;;5.53;2.90;;;12.20;99.90;;;;;;5051417;28;20078;-51
2022/12/26 14:33:31;;;;;;;3.67;3.15;;;12.00;99.90;;;;;;5049870;28;20021;-49
2022/12/26 14:36:18;;;;;;;16.98;10.60;;;11.80;99.90;;;;;;5051099;28;20407;-52
2022/12/26 14:38:52;;;;;;;6.07;4.03;;;11.60;99.90;;;;;;5031263;28;20504;-53
2022/12/26 14:44:29;;;;;;;2.33;2.13;;;11.50;99.90;;;;;;5031088;28;20037;-50
2022/12/26 14:46:58;;;;;;;3.90;2.45;;;11.40;99.90;;;;;;5036566;28;20039;-50
2022/12/26 14:49:36;;;;;;;3.08;2.63;;;11.40;99.90;;;;;;5050614;27;20090;-50
2022/12/26 14:52:23;;;;;;;2.30;2.10;;;11.20;99.90;;;;;;5050383;28;20021;-53
2022/12/26 14:54:54;;;;;;;5.22;3.10;;;11.10;99.90;;;;;;5049477;28;20119;-53
2022/12/26 14:57:43;;;;;;;7.18;4.35;;;11.00;99.90;;;;;;5041533;27;20021;-52
2022/12/26 15:00:21;;;;;;;4.82;3.13;;;11.00;99.90;;;;;;5031210;28;20037;-53
2022/12/26 15:03:00;;;;;;;8.60;4.20;;;10.80;99.90;;;;;;5029751;28;20022;-52
2022/12/26 15:05:31;;;;;;;5.88;3.90;;;10.70;99.90;;;;;;5030966;28;20030;-55
2022/12/26 15:07:57;;;;;;;2.75;2.55;;;10.70;99.90;;;;;;5045007;28;20025;-53
2022/12/26 15:10:43;;;;;;;4.32;3.85;;;10.70;99.90;;;;;;5050692;28;20037;-55
2022/12/26 15:13:09;;;;;;;8.18;3.90;;;10.50;99.90;;;;;;5050485;28;20491;-53
2022/12/26 15:16:17;;;;;;;3.95;3.15;;;10.50;99.90;;;;;;5050804;27;20047;-52
2022/12/26 15:18:46;;;;;;;6.30;3.95;;;10.40;99.90;;;;;;5029751;28;20072;-53
2022/12/26 15:21:30;;;;;;;5.55;4.00;;;10.30;99.90;;;;;;5030888;28;20022;-51
2022/12/26 15:24:23;;;;;;;4.85;3.50;;;10.30;99.90;;;;;;5030647;28;20021;-50
2022/12/26 15:27:07;;;;;;;4.40;2.90;;;10.20;99.90;;;;;;5034518;28;20124;-50
2022/12/26 15:30:09;;;;;;;3.53;2.63;;;10.10;99.90;;;;;;5049380;27;20021;-52